createdAt,value
2022-12-07T00:00:25.903Z,15.90
2022-12-07T00:03:27.983Z,13.40
2022-12-07T00:06:30.052Z,17.17
2022-12-07T00:09:32.874Z,22.55
2022-12-07T00:12:34.966Z,24.58
2022-12-07T00:15:37.108Z,26.23
2022-12-07T00:18:39.982Z,25.60
2022-12-07T00:21:42.738Z,24.77
2022-12-07T00:24:44.878Z,22.45
2022-12-07T00:27:46.901Z,24.13
2022-12-07T00:30:48.908Z,24.23
2022-12-07T00:33:51.857Z,24.80
2022-12-07T00:36:53.844Z,23.20
2022-12-07T00:39:55.937Z,26.48
2022-12-07T00:42:57.893Z,28.70
2022-12-07T00:46:00.057Z,27.38
2022-12-07T00:49:02.265Z,28.35
2022-12-07T00:52:04.589Z,29.55
2022-12-07T00:55:07.015Z,29.90
2022-12-07T00:58:09.869Z,30.52
2022-12-07T01:01:12.450Z,32.10
2022-12-07T01:04:14.819Z,29.08
2022-12-07T01:07:16.897Z,25.83
2022-12-07T01:10:19.155Z,27.42
2022-12-07T01:13:21.154Z,28.17
2022-12-07T01:16:25.901Z,30.27
2022-12-07T01:19:28.029Z,32.35
2022-12-07T01:22:30.270Z,32.22
2022-12-07T01:25:32.616Z,32.65
2022-12-07T01:28:35.258Z,31.00
2022-12-07T01:31:37.365Z,30.27
2022-12-07T01:34:39.743Z,30.60
2022-12-07T01:37:41.826Z,30.38
2022-12-07T01:40:43.858Z,27.52
2022-12-07T01:44:23.100Z,30.75
2022-12-07T01:47:25.266Z,47.45
2022-12-07T01:50:29.681Z,42.63
2022-12-07T01:53:35.133Z,27.88
2022-12-07T01:56:38.222Z,23.38
2022-12-07T01:59:41.044Z,25.80
2022-12-07T02:02:52.281Z,24.90
2022-12-07T02:05:55.161Z,24.88
2022-12-07T02:08:57.526Z,24.40
2022-12-07T02:11:59.683Z,21.98
2022-12-07T02:15:01.880Z,25.75
2022-12-07T02:18:17.085Z,27.70
2022-12-07T02:21:29.454Z,29.85
2022-12-07T02:24:56.338Z,27.48
2022-12-07T02:28:28.420Z,26.00
2022-12-07T02:31:32.855Z,26.25
2022-12-07T02:35:07.465Z,26.80
2022-12-07T02:38:13.138Z,26.23
2022-12-07T02:41:30.915Z,25.02
2022-12-07T02:44:33.776Z,26.02
2022-12-07T02:47:37.991Z,24.25
2022-12-07T02:50:42.238Z,22.20
2022-12-07T02:53:46.247Z,21.55
2022-12-07T02:57:06.375Z,17.20
2022-12-07T03:00:21.353Z,17.33
2022-12-07T03:03:24.531Z,19.15
2022-12-07T03:06:40.262Z,21.70
2022-12-07T03:10:08.996Z,18.13
2022-12-07T03:13:23.042Z,18.67
2022-12-07T03:16:31.777Z,20.65
2022-12-07T03:19:36.177Z,21.58
2022-12-07T03:22:41.035Z,25.13
2022-12-07T03:25:47.821Z,28.55
2022-12-07T03:28:56.751Z,26.05
2022-12-07T03:32:06.282Z,22.47
2022-12-07T03:35:11.132Z,21.95
2022-12-07T03:38:23.013Z,21.50
2022-12-07T03:41:29.660Z,21.15
2022-12-07T03:44:33.227Z,21.63
2022-12-07T03:48:12.502Z,24.98
2022-12-07T03:51:32.438Z,22.15
2022-12-07T03:54:42.512Z,24.65
2022-12-07T03:57:47.952Z,25.58
2022-12-07T04:00:51.759Z,25.40
2022-12-07T04:03:53.802Z,23.73
2022-12-07T04:06:55.905Z,24.38
2022-12-07T04:09:58.480Z,23.35
2022-12-07T04:13:00.682Z,26.77
2022-12-07T04:16:02.845Z,27.88
2022-12-07T04:19:05.410Z,24.55
2022-12-07T04:22:07.962Z,22.15
2022-12-07T04:25:10.228Z,21.05
2022-12-07T04:28:12.277Z,20.10
2022-12-07T04:31:14.399Z,20.48
2022-12-07T04:34:17.796Z,20.60
2022-12-07T04:37:19.804Z,23.73
2022-12-07T04:40:21.835Z,30.85
2022-12-07T04:43:23.853Z,35.60
2022-12-07T04:46:27.486Z,35.13
2022-12-07T04:49:29.633Z,31.25
2022-12-07T04:52:34.260Z,30.55
2022-12-07T04:55:37.089Z,27.30
2022-12-07T04:58:39.235Z,18.95
2022-12-07T05:01:42.008Z,16.92
2022-12-07T05:04:44.035Z,15.95
2022-12-07T05:07:46.087Z,15.35
2022-12-07T05:10:50.316Z,13.68
2022-12-07T05:13:52.348Z,13.23
2022-12-07T05:16:54.828Z,14.48
2022-12-07T05:19:56.878Z,15.75
2022-12-07T05:22:59.536Z,16.58
2022-12-07T05:26:01.616Z,16.85
2022-12-07T05:29:03.983Z,16.95
2022-12-07T05:32:06.241Z,16.33
2022-12-07T05:35:08.923Z,15.65
2022-12-07T05:38:10.959Z,16.33
2022-12-07T05:41:37.824Z,15.63
2022-12-07T05:44:46.939Z,15.65
2022-12-07T05:47:48.950Z,17.15
2022-12-07T05:50:52.094Z,15.57
2022-12-07T05:53:54.257Z,15.90
2022-12-07T05:56:56.853Z,16.08
2022-12-07T05:59:59.023Z,17.25
2022-12-07T06:03:01.323Z,16.77
2022-12-07T06:06:03.737Z,19.77
2022-12-07T06:09:05.878Z,21.23
2022-12-07T06:12:28.933Z,23.40
2022-12-07T06:15:37.571Z,18.98
2022-12-07T06:18:40.761Z,19.38
2022-12-07T06:21:43.154Z,19.38
2022-12-07T06:24:45.543Z,20.80
2022-12-07T06:27:47.575Z,20.63
2022-12-07T06:31:01.098Z,18.15
2022-12-07T06:34:05.965Z,18.27
2022-12-07T06:37:08.463Z,20.65
2022-12-07T06:40:11.458Z,19.52
2022-12-07T06:43:13.728Z,18.50
2022-12-07T06:46:16.639Z,17.67
2022-12-07T06:49:19.172Z,19.40
2022-12-07T06:52:21.207Z,18.70
2022-12-07T06:55:23.238Z,19.25
2022-12-07T06:58:25.544Z,18.48
2022-12-07T07:01:27.768Z,20.35
2022-12-07T07:04:29.935Z,18.98
2022-12-07T07:07:33.478Z,20.15
2022-12-07T07:10:44.042Z,19.95
2022-12-07T07:13:46.553Z,18.30
2022-12-07T07:16:48.672Z,21.70
2022-12-07T07:19:50.773Z,17.98
2022-12-07T07:22:55.902Z,18.70
2022-12-07T07:25:58.128Z,18.88
2022-12-07T07:29:00.205Z,18.15
2022-12-07T07:32:06.672Z,19.70
2022-12-07T07:35:09.678Z,22.95
2022-12-07T07:38:11.717Z,25.17
2022-12-07T07:41:13.755Z,23.40
2022-12-07T07:44:15.848Z,21.80
2022-12-07T07:47:17.942Z,19.75
2022-12-07T07:50:21.234Z,20.10
2022-12-07T07:53:23.281Z,18.73
2022-12-07T07:56:25.313Z,17.70
2022-12-07T07:59:27.434Z,17.20
2022-12-07T08:02:30.650Z,19.05
2022-12-07T08:05:32.728Z,17.05
2022-12-07T08:08:34.833Z,17.75
2022-12-07T08:11:37.647Z,17.70
2022-12-07T08:14:39.772Z,17.40
2022-12-07T08:17:41.756Z,15.93
2022-12-07T08:20:44.104Z,15.88
2022-12-07T08:23:46.134Z,16.33
2022-12-07T08:26:48.207Z,16.48
2022-12-07T08:29:50.244Z,15.80
2022-12-07T08:32:52.264Z,16.15
2022-12-07T08:35:54.423Z,17.52
2022-12-07T08:39:29.657Z,16.55
2022-12-07T08:42:18.766Z,16.75
2022-12-07T08:45:26.728Z,18.10
2022-12-07T08:48:29.317Z,18.83
2022-12-07T08:51:33.008Z,19.42
2022-12-07T08:54:37.764Z,22.27
2022-12-07T08:57:41.542Z,21.90
2022-12-07T09:00:43.744Z,22.95
2022-12-07T09:03:46.273Z,20.85
2022-12-07T09:06:48.767Z,46.20
2022-12-07T09:09:51.118Z,36.08
2022-12-07T09:12:53.304Z,20.85
2022-12-07T09:15:55.400Z,18.77
2022-12-07T09:18:57.610Z,28.77
2022-12-07T09:22:00.184Z,16.27
2022-12-07T09:25:02.954Z,20.88
2022-12-07T09:28:05.064Z,19.88
2022-12-07T09:31:24.766Z,22.33
2022-12-07T09:34:27.794Z,14.65
2022-12-07T09:37:30.170Z,25.80
2022-12-07T09:40:34.801Z,18.77
2022-12-07T09:43:39.993Z,14.02
2022-12-07T09:46:44.260Z,13.60
2022-12-07T09:49:46.461Z,14.85
2022-12-07T09:52:50.437Z,13.95
2022-12-07T09:55:52.833Z,15.13
2022-12-07T09:59:02.012Z,15.15
2022-12-07T10:02:29.259Z,14.15
2022-12-07T10:05:39.471Z,25.70
2022-12-07T10:08:42.431Z,14.70
2022-12-07T10:12:09.743Z,13.63
2022-12-07T10:15:11.868Z,13.90
2022-12-07T10:18:27.323Z,14.73
2022-12-07T10:21:29.298Z,23.60
2022-12-07T10:24:31.462Z,15.60
2022-12-07T10:27:33.982Z,13.93
2022-12-07T10:31:00.425Z,16.33
2022-12-07T10:34:03.047Z,16.58
2022-12-07T10:37:14.592Z,16.30
2022-12-07T10:40:26.163Z,17.38
2022-12-07T10:43:28.200Z,22.08
2022-12-07T10:47:17.982Z,16.70
2022-12-07T10:50:58.725Z,20.20
2022-12-07T10:54:37.316Z,18.43
2022-12-07T10:57:39.358Z,19.38
2022-12-07T11:00:53.946Z,17.92
2022-12-07T11:04:02.181Z,20.48
2022-12-07T11:07:10.518Z,18.40
2022-12-07T11:10:43.971Z,19.80
2022-12-07T11:14:21.567Z,19.17
2022-12-07T11:17:32.217Z,19.50
2022-12-07T11:21:05.534Z,20.27
2022-12-07T11:24:24.932Z,19.35
2022-12-07T11:27:44.975Z,20.97
2022-12-07T11:30:52.986Z,24.08
2022-12-07T11:34:09.124Z,22.88
2022-12-07T11:37:19.885Z,25.52
2022-12-07T11:40:31.584Z,25.63
2022-12-07T11:43:36.613Z,25.60
2022-12-07T11:46:52.827Z,27.98
2022-12-07T11:50:20.469Z,28.33
2022-12-07T11:53:38.589Z,26.40
2022-12-07T11:56:41.157Z,28.15
2022-12-07T11:59:50.632Z,26.55
2022-12-07T12:03:01.493Z,29.25
2022-12-07T12:06:03.659Z,29.70
2022-12-07T12:16:26.750Z,25.70
2022-12-07T12:19:57.152Z,26.67
2022-12-07T12:23:17.376Z,23.75
2022-12-07T12:26:28.014Z,21.23
2022-12-07T12:29:38.505Z,22.98
2022-12-07T12:32:43.211Z,23.13
2022-12-07T12:35:46.437Z,21.10
2022-12-07T12:38:51.032Z,10.93
2022-12-07T12:41:58.166Z,11.27
2022-12-07T12:45:24.042Z,11.48
2022-12-07T12:48:31.596Z,11.27
2022-12-07T12:51:40.117Z,12.98
2022-12-07T12:55:22.471Z,14.90
2022-12-07T12:58:35.473Z,14.18
2022-12-07T13:01:41.020Z,14.05
2022-12-07T13:05:11.381Z,13.32
2022-12-07T13:08:30.614Z,12.52
2022-12-07T13:11:42.759Z,12.07
2022-12-07T13:14:58.349Z,14.40
2022-12-07T13:18:02.979Z,13.85
2022-12-07T13:21:08.000Z,12.98
2022-12-07T13:24:13.171Z,12.48
2022-12-07T13:27:15.348Z,12.70
2022-12-07T13:30:21.295Z,13.25
2022-12-07T13:33:23.475Z,13.10
2022-12-07T13:36:39.697Z,11.65
2022-12-07T13:39:51.895Z,11.18
2022-12-07T13:43:05.329Z,12.15
2022-12-07T13:46:10.392Z,12.00
2022-12-07T13:49:30.983Z,10.65
2022-12-07T13:52:33.067Z,11.50
2022-12-07T13:55:35.417Z,12.48
2022-12-07T13:58:37.922Z,9.98
2022-12-07T14:01:40.147Z,11.15
2022-12-07T14:04:42.459Z,10.55
2022-12-07T14:07:56.225Z,10.70
2022-12-07T14:10:59.388Z,10.25
2022-12-07T14:14:03.263Z,10.65
2022-12-07T14:17:23.650Z,14.13
2022-12-07T14:20:38.365Z,13.00
2022-12-07T14:23:41.886Z,12.52
2022-12-07T14:26:45.788Z,13.52
2022-12-07T14:29:48.602Z,13.55
2022-12-07T14:33:17.109Z,14.20
2022-12-07T14:36:19.159Z,14.93
2022-12-07T14:39:21.496Z,15.38
2022-12-07T14:42:29.837Z,15.15
2022-12-07T14:45:32.588Z,16.90
2022-12-07T14:55:28.380Z,20.77
2022-12-07T14:58:30.453Z,25.60
2022-12-07T15:01:32.605Z,48.83
2022-12-07T15:04:34.901Z,23.05
2022-12-07T15:07:37.591Z,21.48
2022-12-07T15:10:41.139Z,20.48
2022-12-07T15:14:01.646Z,21.33
2022-12-07T15:17:16.675Z,20.65
2022-12-07T15:20:25.508Z,20.80
2022-12-07T15:23:27.550Z,19.98
2022-12-07T15:26:29.618Z,19.55
2022-12-07T15:29:31.734Z,21.10
2022-12-07T15:32:34.004Z,19.27
2022-12-07T15:35:40.857Z,17.50
2022-12-07T15:39:12.448Z,16.25
2022-12-07T15:42:05.861Z,15.15
2022-12-07T15:45:10.146Z,14.65
2022-12-07T15:48:29.502Z,14.73
2022-12-07T15:51:31.968Z,19.00
2022-12-07T15:54:34.031Z,17.10
2022-12-07T15:57:38.123Z,16.85
2022-12-07T16:00:40.218Z,17.65
2022-12-07T16:03:42.715Z,15.55
2022-12-07T16:06:45.699Z,16.58
2022-12-07T16:09:48.409Z,16.98
2022-12-07T16:12:50.678Z,16.00
2022-12-07T16:15:52.775Z,17.88
2022-12-07T16:18:55.180Z,19.88
2022-12-07T16:21:57.488Z,21.35
2022-12-07T16:24:59.639Z,23.42
2022-12-07T16:28:01.797Z,25.95
2022-12-07T16:31:13.055Z,23.23
2022-12-07T16:34:15.187Z,21.13
2022-12-07T16:37:17.278Z,21.63
2022-12-07T16:40:19.726Z,19.00
2022-12-07T16:43:22.073Z,17.35
2022-12-07T16:46:24.513Z,16.85
2022-12-07T16:49:26.877Z,15.55
2022-12-07T16:52:29.078Z,20.35
2022-12-07T16:55:31.124Z,16.73
2022-12-07T16:58:34.006Z,20.17
2022-12-07T17:01:37.341Z,19.15
2022-12-07T17:04:43.471Z,18.10
2022-12-07T17:07:45.581Z,14.95
2022-12-07T17:10:47.734Z,18.27
2022-12-07T17:14:08.996Z,20.35
2022-12-07T17:17:11.181Z,19.90
2022-12-07T17:20:14.365Z,22.98
2022-12-07T17:23:16.479Z,19.13
2022-12-07T17:26:21.781Z,17.77
2022-12-07T17:29:24.437Z,22.95
2022-12-07T17:32:26.962Z,19.58
2022-12-07T17:35:29.218Z,23.20
2022-12-07T17:38:31.625Z,24.65
2022-12-07T17:41:52.437Z,26.05
2022-12-07T17:44:55.122Z,20.73
2022-12-07T17:47:57.601Z,18.60
2022-12-07T17:51:21.942Z,24.42
2022-12-07T17:54:24.511Z,30.08
2022-12-07T17:57:26.597Z,24.70
2022-12-07T18:00:30.269Z,19.15
2022-12-07T18:03:32.684Z,17.77
2022-12-07T18:06:35.684Z,21.73
2022-12-07T18:09:38.572Z,25.65
2022-12-07T18:12:41.098Z,18.85
2022-12-07T18:15:44.934Z,25.23
2022-12-07T18:18:52.519Z,22.48
2022-12-07T18:21:55.143Z,23.02
2022-12-07T18:24:57.683Z,17.88
2022-12-07T18:28:00.260Z,19.08
2022-12-07T18:31:18.270Z,15.88
2022-12-07T18:34:20.610Z,14.95
2022-12-07T18:37:27.928Z,17.90
2022-12-07T18:40:30.860Z,19.02
2022-12-07T18:43:33.762Z,24.75
2022-12-07T18:46:37.149Z,18.02
2022-12-07T18:49:39.367Z,20.67
2022-12-07T18:52:42.068Z,26.48
2022-12-07T18:55:44.386Z,21.52
2022-12-07T18:59:13.732Z,21.30
2022-12-07T19:02:19.167Z,20.33
2022-12-07T19:05:26.597Z,20.73
2022-12-07T19:08:30.045Z,16.38
2022-12-07T19:11:52.740Z,13.05
2022-12-07T19:14:55.887Z,12.27
2022-12-07T19:18:01.981Z,12.77
2022-12-07T19:21:05.198Z,13.38
2022-12-07T19:24:08.150Z,12.65
2022-12-07T19:27:11.859Z,13.00
2022-12-07T19:30:14.931Z,22.23
2022-12-07T19:33:18.745Z,21.15
2022-12-07T19:36:21.758Z,16.27
2022-12-07T19:39:25.127Z,14.07
2022-12-07T19:42:28.138Z,13.63
2022-12-07T19:45:33.269Z,13.70
2022-12-07T19:48:36.577Z,13.70
2022-12-07T19:51:39.381Z,13.90
2022-12-07T19:54:44.909Z,15.25
2022-12-07T19:57:47.918Z,15.30
2022-12-07T20:00:51.099Z,16.20
2022-12-07T20:03:55.144Z,16.75
2022-12-07T20:07:00.606Z,18.60
2022-12-07T20:10:04.701Z,17.67
2022-12-07T20:13:27.942Z,18.58
2022-12-07T20:16:30.733Z,19.63
2022-12-07T20:19:35.906Z,19.88
2022-12-07T20:22:39.034Z,19.60
2022-12-07T20:25:43.007Z,20.77
2022-12-07T20:28:47.105Z,20.88
2022-12-07T20:31:56.001Z,21.45
2022-12-07T20:34:58.301Z,21.77
2022-12-07T20:38:01.020Z,22.17
2022-12-07T20:41:08.442Z,20.88
2022-12-07T20:44:11.205Z,19.67
2022-12-07T20:47:13.979Z,21.90
2022-12-07T20:50:16.537Z,21.88
2022-12-07T20:53:18.833Z,32.38
2022-12-07T20:56:30.893Z,25.40
2022-12-07T20:59:39.661Z,20.10
2022-12-07T21:02:44.204Z,20.95
2022-12-07T21:05:50.700Z,18.35
2022-12-07T21:08:56.124Z,16.88
2022-12-07T21:11:58.278Z,17.30
2022-12-07T21:15:00.596Z,15.57
2022-12-07T21:18:07.246Z,18.17
2022-12-07T21:21:11.354Z,19.40
2022-12-07T21:24:13.501Z,17.38
2022-12-07T21:27:15.672Z,19.48
2022-12-07T21:30:18.227Z,21.52
2022-12-07T21:33:20.240Z,18.35
2022-12-07T21:36:24.407Z,18.60
2022-12-07T21:39:26.557Z,18.35
2022-12-07T21:42:28.623Z,18.00
2022-12-07T21:45:32.535Z,18.55
2022-12-07T21:48:34.854Z,23.55
2022-12-07T21:51:37.939Z,26.25
2022-12-07T21:54:40.561Z,21.10
2022-12-07T21:57:42.790Z,21.50
2022-12-07T22:00:44.868Z,20.63
2022-12-07T22:03:47.417Z,22.48
2022-12-07T22:06:50.537Z,21.70
2022-12-07T22:09:57.068Z,23.92
2022-12-07T22:13:00.257Z,23.67
2022-12-07T22:16:03.369Z,22.45
2022-12-07T22:19:06.424Z,23.45
2022-12-07T22:22:13.097Z,24.20
2022-12-07T22:25:15.707Z,23.27
2022-12-07T22:28:17.821Z,24.55
2022-12-07T22:31:21.148Z,22.17
2022-12-07T22:34:23.322Z,23.50
2022-12-07T22:37:27.202Z,26.50
2022-12-07T22:40:29.276Z,33.92
2022-12-07T22:43:31.362Z,32.35
2022-12-07T22:46:34.160Z,31.38
2022-12-07T22:49:36.449Z,28.02
2022-12-07T22:52:38.489Z,26.55
2022-12-07T22:55:41.064Z,26.15
2022-12-07T22:58:43.151Z,25.55
2022-12-07T23:01:45.222Z,20.63
2022-12-07T23:04:47.318Z,18.95
2022-12-07T23:07:49.443Z,17.30
2022-12-07T23:10:51.650Z,18.00
2022-12-07T23:13:53.682Z,19.33
2022-12-07T23:16:55.786Z,19.30
2022-12-07T23:19:57.891Z,18.23
2022-12-07T23:23:00.000Z,19.85
2022-12-07T23:26:07.216Z,18.85
2022-12-07T23:29:15.676Z,19.08
2022-12-07T23:32:19.653Z,20.58
2022-12-07T23:35:21.859Z,18.63
2022-12-07T23:38:23.885Z,18.23
2022-12-07T23:41:30.631Z,16.95
2022-12-07T23:44:32.801Z,18.05
2022-12-07T23:47:35.054Z,18.20
2022-12-07T23:50:37.278Z,19.77
2022-12-07T23:53:43.166Z,20.63
2022-12-07T23:56:45.206Z,19.55
2022-12-07T23:59:47.451Z,21.77
